Time;durP1;ratioP1;P1;durP2;ratioP2;P2;SDS_P1;SDS_P2;PMS_P1;PMS_P2;Temp;Humidity;BMP_temperature;BMP_pressure;BME280_temperature;BME280_humidity;BME280_pressure;Samples;Min_cycle;Max_cycle;Signal;HPM_P1;HPM_P2
2022/11/22 00:02:25;;;;;;;19.97;15.30;;;-0.20;99.90;;;;;;5097567;28;20548;-65
2022/11/22 00:04:52;;;;;;;22.10;14.70;;;-0.20;99.90;;;;;;5097333;28;20453;-65
2022/11/22 00:07:19;;;;;;;21.03;15.50;;;-0.20;99.90;;;;;;5097220;28;20454;-65
2022/11/22 00:09:48;;;;;;;21.07;15.30;;;-0.20;99.90;;;;;;5097293;28;20453;-65
2022/11/22 00:12:15;;;;;;;22.70;15.63;;;-0.20;99.90;;;;;;5096882;28;20493;-65
2022/11/22 00:14:41;;;;;;;22.30;14.83;;;-0.10;99.90;;;;;;5097277;28;20564;-64
2022/11/22 00:17:08;;;;;;;21.80;16.10;;;0.00;99.90;;;;;;5097569;28;20536;-65
2022/11/22 00:19:38;;;;;;;23.00;15.03;;;0.00;99.90;;;;;;5097016;28;21032;-66
2022/11/22 00:22:05;;;;;;;21.10;14.43;;;0.10;99.90;;;;;;5097202;28;20579;-66
2022/11/22 00:24:32;;;;;;;20.90;14.50;;;0.10;99.90;;;;;;5096733;28;20460;-65
2022/11/22 00:27:00;;;;;;;24.00;16.10;;;0.10;99.90;;;;;;5096548;28;20477;-65
2022/11/22 00:29:27;;;;;;;20.63;14.23;;;0.20;99.90;;;;;;5096940;28;20449;-66
2022/11/22 00:31:54;;;;;;;24.50;15.97;;;0.20;99.90;;;;;;5096833;28;20546;-65
2022/11/22 00:34:21;;;;;;;26.37;15.40;;;0.10;99.90;;;;;;5096594;28;20453;-65
2022/11/22 00:36:48;;;;;;;18.73;13.93;;;0.10;99.90;;;;;;5096710;28;20514;-65
2022/11/22 00:39:15;;;;;;;21.27;15.60;;;0.00;99.90;;;;;;5096965;28;20607;-65
2022/11/22 00:41:42;;;;;;;22.17;15.60;;;0.00;99.90;;;;;;5096765;28;20485;-64
2022/11/22 00:44:10;;;;;;;25.30;15.90;;;0.00;99.90;;;;;;5096801;28;20502;-65
2022/11/22 00:46:37;;;;;;;22.20;15.53;;;-0.10;99.90;;;;;;5096625;28;20485;-65
2022/11/22 00:49:04;;;;;;;23.20;16.07;;;-0.10;99.90;;;;;;5095694;28;20454;-64
2022/11/22 00:51:31;;;;;;;23.37;16.37;;;-0.10;99.90;;;;;;5096022;28;20863;-64
2022/11/22 00:53:58;;;;;;;23.33;15.37;;;-0.20;99.90;;;;;;5096113;28;20454;-66
2022/11/22 00:56:25;;;;;;;25.40;16.30;;;-0.20;99.90;;;;;;5096253;28;20564;-65
2022/11/22 00:58:52;;;;;;;24.17;15.40;;;-0.20;99.90;;;;;;5096130;28;20836;-66
2022/11/22 01:01:20;;;;;;;26.23;17.00;;;-0.20;99.90;;;;;;5095795;28;20504;-64
2022/11/22 01:03:47;;;;;;;22.30;15.63;;;-0.20;99.90;;;;;;5095880;28;20457;-65
2022/11/22 01:06:14;;;;;;;23.20;15.67;;;-0.30;99.90;;;;;;5095807;28;20457;-64
2022/11/22 01:08:41;;;;;;;25.40;16.90;;;-0.30;99.90;;;;;;5096250;28;20506;-65
2022/11/22 01:11:08;;;;;;;29.97;16.60;;;-0.30;99.90;;;;;;5096072;28;20489;-66
2022/11/22 01:13:35;;;;;;;26.40;16.83;;;-0.30;99.90;;;;;;5096469;28;20453;-65
2022/11/22 01:16:04;;;;;;;27.33;17.90;;;-0.40;99.90;;;;;;5096099;28;20522;-65
2022/11/22 01:18:32;;;;;;;25.00;16.83;;;-0.30;99.90;;;;;;5095859;28;20820;-65
2022/11/22 01:21:00;;;;;;;21.20;14.30;;;-0.30;99.90;;;;;;5096171;28;20544;-64
2022/11/22 01:23:27;;;;;;;25.57;16.30;;;-0.30;99.90;;;;;;5095929;28;20457;-66
2022/11/22 01:25:54;;;;;;;28.33;17.87;;;-0.30;99.90;;;;;;5095564;28;21003;-65
2022/11/22 01:28:21;;;;;;;23.97;15.73;;;-0.30;99.90;;;;;;5095545;28;20937;-65
2022/11/22 01:30:51;;;;;;;27.23;16.90;;;-0.40;99.90;;;;;;5095774;28;20540;-65
2022/11/22 01:33:18;;;;;;;26.93;18.33;;;-0.40;99.90;;;;;;5095855;28;20497;-65
2022/11/22 01:35:47;;;;;;;27.03;17.67;;;-0.40;99.90;;;;;;5095445;28;20457;-64
2022/11/22 01:38:14;;;;;;;25.60;17.57;;;-0.40;99.90;;;;;;5095346;28;20489;-66
2022/11/22 01:40:41;;;;;;;30.00;17.80;;;-0.40;99.90;;;;;;5095787;28;20457;-64
2022/11/22 01:43:16;;;;;;;25.77;16.67;;;-0.50;99.90;;;;;;5095566;28;20457;-65
2022/11/22 01:45:46;;;;;;;29.50;17.07;;;-0.50;99.90;;;;;;5096334;28;20494;-65
2022/11/22 01:48:32;;;;;;;26.13;16.30;;;-0.50;99.90;;;;;;5098022;28;20542;-65
2022/11/22 01:51:05;;;;;;;28.00;17.87;;;-0.50;99.90;;;;;;5097647;28;20462;-65
2022/11/22 01:53:36;;;;;;;24.40;17.13;;;-0.50;99.90;;;;;;5096313;28;20524;-65
2022/11/22 01:56:06;;;;;;;25.40;17.33;;;-0.50;99.90;;;;;;5095322;28;20527;-65
2022/11/22 01:58:36;;;;;;;28.70;17.70;;;-0.60;99.90;;;;;;5095201;28;20534;-65
2022/11/22 02:01:03;;;;;;;27.13;18.07;;;-0.60;99.90;;;;;;5095443;28;20548;-65
2022/11/22 02:03:34;;;;;;;28.20;16.63;;;-0.60;99.90;;;;;;5095208;28;20538;-66
2022/11/22 02:06:03;;;;;;;26.00;16.10;;;-0.60;99.90;;;;;;5095059;28;20874;-65
2022/11/22 02:08:37;;;;;;;26.10;16.13;;;-0.60;99.90;;;;;;5094956;28;20969;-65
2022/11/22 02:11:06;;;;;;;30.47;18.17;;;-0.60;99.90;;;;;;5094843;28;20437;-65
2022/11/22 02:13:37;;;;;;;27.37;17.13;;;-0.60;99.90;;;;;;5094727;28;20514;-66
2022/11/22 02:16:05;;;;;;;24.13;16.37;;;-0.60;99.90;;;;;;5094702;28;20437;-64
2022/11/22 02:18:35;;;;;;;29.47;17.40;;;-0.60;99.90;;;;;;5094481;28;20524;-65
2022/11/22 02:21:04;;;;;;;25.13;15.37;;;-0.50;99.90;;;;;;5095129;28;20454;-66
2022/11/22 02:23:40;;;;;;;25.57;16.70;;;-0.50;99.90;;;;;;5079021;28;20463;-65
2022/11/22 02:26:09;;;;;;;27.17;17.40;;;-0.50;99.90;;;;;;5094588;28;20571;-65
2022/11/22 02:28:39;;;;;;;25.77;16.83;;;-0.50;99.90;;;;;;5095314;28;20496;-66
2022/11/22 02:31:06;;;;;;;30.03;16.27;;;-0.40;99.90;;;;;;5095124;28;20983;-65
2022/11/22 02:33:33;;;;;;;25.00;16.60;;;-0.40;99.90;;;;;;5095071;28;20540;-66
2022/11/22 02:36:00;;;;;;;26.57;17.27;;;-0.40;99.90;;;;;;5094750;28;20582;-65
2022/11/22 02:38:31;;;;;;;25.47;15.93;;;-0.40;99.90;;;;;;5094429;28;20545;-65
2022/11/22 02:41:02;;;;;;;24.20;15.60;;;-0.40;99.90;;;;;;5095089;28;20502;-64
2022/11/22 02:43:34;;;;;;;30.40;18.57;;;-0.40;99.90;;;;;;5094872;28;20891;-65
2022/11/22 02:46:05;;;;;;;28.00;17.83;;;-0.40;99.90;;;;;;5095190;28;20800;-65
2022/11/22 02:48:33;;;;;;;26.73;16.73;;;-0.40;99.90;;;;;;5094986;28;20461;-65
2022/11/22 02:51:01;;;;;;;24.03;15.63;;;-0.40;99.90;;;;;;5094759;28;20499;-65
2022/11/22 02:53:30;;;;;;;26.07;17.03;;;-0.40;99.90;;;;;;5094688;28;20457;-66
2022/11/22 02:55:57;;;;;;;22.30;15.47;;;-0.40;99.90;;;;;;5094714;28;20926;-66
2022/11/22 02:58:24;;;;;;;24.13;16.00;;;-0.40;99.90;;;;;;5094514;28;20544;-65
2022/11/22 03:00:52;;;;;;;22.80;15.60;;;-0.30;99.90;;;;;;5095069;28;20461;-65
2022/11/22 03:03:19;;;;;;;26.77;16.50;;;-0.30;99.90;;;;;;5094582;28;20458;-65
2022/11/22 03:05:46;;;;;;;26.00;16.40;;;-0.20;99.90;;;;;;5094691;28;20563;-65
2022/11/22 03:08:13;;;;;;;24.30;15.63;;;-0.20;99.90;;;;;;5094565;28;20820;-65
2022/11/22 03:10:40;;;;;;;26.87;16.37;;;-0.30;99.90;;;;;;5094744;28;20450;-65
2022/11/22 03:13:07;;;;;;;28.07;17.83;;;-0.20;99.90;;;;;;5096011;28;20543;-65
2022/11/22 03:15:34;;;;;;;26.50;16.07;;;-0.20;99.90;;;;;;5098040;28;20912;-65
2022/11/22 03:18:04;;;;;;;26.10;16.70;;;-0.20;99.90;;;;;;5098832;28;20525;-64
2022/11/22 03:20:33;;;;;;;28.93;16.10;;;-0.20;99.90;;;;;;5099075;28;20461;-65
2022/11/22 03:23:00;;;;;;;26.47;16.70;;;-0.20;99.90;;;;;;5098281;28;20504;-65
2022/11/22 03:25:28;;;;;;;24.27;16.50;;;-0.20;99.90;;;;;;5097622;28;20521;-66
2022/11/22 03:27:55;;;;;;;28.87;15.67;;;-0.10;99.90;;;;;;5097753;28;20540;-65
2022/11/22 03:30:22;;;;;;;27.33;16.90;;;-0.10;99.90;;;;;;5098200;28;20549;-65
2022/11/22 03:32:50;;;;;;;28.03;16.60;;;-0.10;99.90;;;;;;5089472;28;20512;-66
2022/11/22 03:35:18;;;;;;;23.93;15.37;;;-0.10;99.90;;;;;;5077850;28;20939;-65
2022/11/22 03:37:45;;;;;;;25.43;16.27;;;-0.10;99.90;;;;;;5077524;28;20454;-65
2022/11/22 03:40:13;;;;;;;29.93;16.93;;;-0.10;99.90;;;;;;5077449;28;20973;-65
2022/11/22 03:42:41;;;;;;;27.00;17.43;;;-0.20;99.90;;;;;;5077524;28;20545;-66
2022/11/22 03:45:08;;;;;;;27.03;17.17;;;-0.20;99.90;;;;;;5077194;28;20458;-64
2022/11/22 03:47:35;;;;;;;26.00;15.70;;;-0.20;99.90;;;;;;5077879;28;20482;-66
2022/11/22 03:50:02;;;;;;;24.30;14.90;;;-0.20;99.90;;;;;;5077201;28;20972;-66
2022/11/22 03:52:30;;;;;;;26.83;17.07;;;-0.20;99.90;;;;;;5077830;28;20840;-65
2022/11/22 03:54:57;;;;;;;26.00;17.27;;;-0.20;99.90;;;;;;5077197;28;20490;-66
2022/11/22 03:57:24;;;;;;;27.37;16.63;;;-0.20;99.90;;;;;;5077302;28;20450;-64
2022/11/22 03:59:51;;;;;;;24.40;15.57;;;-0.20;99.90;;;;;;5076764;28;20668;-65
2022/11/22 04:02:18;;;;;;;29.23;16.37;;;-0.20;99.90;;;;;;5077239;28;20850;-66
2022/11/22 04:04:45;;;;;;;26.50;15.70;;;-0.20;99.90;;;;;;5076796;28;20548;-65
2022/11/22 04:07:12;;;;;;;32.00;17.97;;;-0.20;99.90;;;;;;5077199;28;20519;-66
2022/11/22 04:09:40;;;;;;;24.67;16.00;;;-0.20;99.90;;;;;;5077228;28;20553;-64
2022/11/22 04:12:07;;;;;;;27.40;17.17;;;-0.20;99.90;;;;;;5076833;28;20923;-66
2022/11/22 04:17:39;;;;;;;25.73;17.53;;;-0.20;99.90;;;;;;5076749;28;20508;-65
2022/11/22 04:22:56;;;;;;;27.80;16.97;;;-0.30;99.90;;;;;;5076894;28;20499;-67
2022/11/22 04:25:25;;;;;;;28.30;16.07;;;-0.20;99.90;;;;;;5075631;28;20957;-65
2022/11/22 04:27:52;;;;;;;25.43;16.13;;;-0.20;99.90;;;;;;5076742;28;20458;-65
2022/11/22 04:30:19;;;;;;;25.57;16.73;;;-0.20;99.90;;;;;;5076468;28;20850;-64
2022/11/22 04:32:45;;;;;;;30.40;18.43;;;-0.20;99.90;;;;;;5076850;28;20547;-65
2022/11/22 04:35:14;;;;;;;31.20;16.77;;;-0.10;99.90;;;;;;5077879;28;20465;-66
2022/11/22 04:37:41;;;;;;;26.00;16.63;;;-0.10;99.90;;;;;;5078399;28;20485;-65
2022/11/22 04:40:09;;;;;;;28.10;15.73;;;-0.10;99.90;;;;;;5076093;28;20546;-65
2022/11/22 04:45:23;;;;;;;29.77;17.20;;;-0.10;99.90;;;;;;5076247;28;20524;-65
2022/11/22 04:47:59;;;;;;;32.33;17.43;;;-0.10;99.90;;;;;;5076129;28;20977;-65
2022/11/22 04:53:11;;;;;;;29.10;18.13;;;0.00;99.90;;;;;;5075937;28;20445;-66
2022/11/22 04:55:38;;;;;;;31.90;17.77;;;0.00;99.90;;;;;;5076021;28;20490;-65
2022/11/22 04:58:06;;;;;;;30.07;17.33;;;0.00;99.90;;;;;;5076429;28;20549;-64
2022/11/22 05:00:34;;;;;;;31.90;19.50;;;0.10;99.90;;;;;;5075624;28;20521;-65
2022/11/22 05:03:01;;;;;;;25.07;16.73;;;0.10;99.90;;;;;;5075707;28;20497;-65
2022/11/22 05:05:28;;;;;;;31.60;18.20;;;0.10;99.90;;;;;;5076088;28;20454;-65
2022/11/22 05:07:56;;;;;;;31.17;17.77;;;0.20;99.90;;;;;;5076106;28;20533;-65
2022/11/22 05:10:23;;;;;;;31.27;18.47;;;0.10;99.90;;;;;;5075930;28;20458;-66
2022/11/22 05:12:50;;;;;;;32.13;17.90;;;0.20;99.90;;;;;;5075928;28;20490;-65
2022/11/22 05:15:18;;;;;;;31.17;17.93;;;0.20;99.90;;;;;;5075900;28;20790;-64
2022/11/22 05:17:45;;;;;;;32.50;18.00;;;0.20;99.90;;;;;;5075776;28;20497;-66
2022/11/22 05:20:12;;;;;;;35.00;18.83;;;0.20;99.90;;;;;;5075710;28;20889;-65
2022/11/22 05:25:23;;;;;;;32.07;19.17;;;0.30;99.90;;;;;;5075552;28;20555;-65
2022/11/22 05:27:54;;;;;;;33.77;19.37;;;0.30;99.90;;;;;;5075388;28;20462;-65
2022/11/22 05:30:22;;;;;;;32.97;20.67;;;0.30;99.90;;;;;;5075304;28;20438;-65
2022/11/22 05:32:49;;;;;;;31.60;19.17;;;0.40;99.90;;;;;;5075066;28;20907;-64
2022/11/22 05:35:16;;;;;;;34.03;19.87;;;0.40;99.90;;;;;;5075097;28;20516;-65
2022/11/22 05:37:43;;;;;;;36.00;19.37;;;0.40;99.90;;;;;;5075248;28;20458;-65
2022/11/22 05:40:11;;;;;;;35.53;20.87;;;0.40;99.90;;;;;;5075289;28;20805;-65
2022/11/22 05:42:38;;;;;;;37.30;18.40;;;0.40;99.90;;;;;;5075191;28;20527;-65
2022/11/22 05:45:06;;;;;;;34.10;19.20;;;0.40;99.90;;;;;;5075049;28;20488;-65
2022/11/22 05:47:35;;;;;;;32.43;19.87;;;0.40;99.90;;;;;;5075108;28;20929;-64
2022/11/22 05:50:03;;;;;;;33.23;18.00;;;0.40;99.90;;;;;;5076254;28;20478;-64
2022/11/22 05:52:30;;;;;;;35.60;20.40;;;0.40;99.90;;;;;;5075392;28;20523;-65
2022/11/22 05:54:57;;;;;;;35.80;16.87;;;0.50;99.90;;;;;;5074874;28;20496;-65
2022/11/22 05:57:24;;;;;;;36.50;20.00;;;0.50;99.90;;;;;;5074693;28;20585;-67
2022/11/22 05:59:51;;;;;;;37.67;18.70;;;0.50;99.90;;;;;;5074917;28;20470;-66
2022/11/22 06:02:18;;;;;;;35.17;20.00;;;0.60;99.90;;;;;;5075113;28;20526;-65
2022/11/22 06:04:46;;;;;;;33.13;18.60;;;0.60;99.90;;;;;;5075264;28;20453;-66
2022/11/22 06:07:13;;;;;;;39.50;22.33;;;0.60;99.90;;;;;;5075066;28;20454;-65
2022/11/22 06:09:40;;;;;;;30.13;17.80;;;0.60;99.90;;;;;;5075843;28;20772;-65
2022/11/22 06:12:07;;;;;;;33.90;18.83;;;0.60;99.90;;;;;;5074481;28;20544;-65
2022/11/22 06:14:34;;;;;;;29.20;16.93;;;0.60;99.90;;;;;;5074646;28;20549;-66
2022/11/22 06:17:02;;;;;;;34.23;19.60;;;0.60;99.90;;;;;;5074798;28;20545;-66
2022/11/22 06:19:29;;;;;;;36.07;20.00;;;0.60;99.90;;;;;;5074517;28;20591;-65
2022/11/22 06:21:57;;;;;;;28.70;18.10;;;0.60;99.90;;;;;;5074661;28;20956;-65
2022/11/22 06:24:24;;;;;;;32.97;19.20;;;0.60;99.90;;;;;;5074557;28;20845;-64
2022/11/22 06:26:51;;;;;;;33.50;20.70;;;0.60;99.90;;;;;;5074480;28;20564;-64
2022/11/22 06:29:17;;;;;;;32.97;18.87;;;0.60;99.90;;;;;;5075417;28;20482;-65
2022/11/22 06:31:44;;;;;;;34.67;18.70;;;0.60;99.90;;;;;;5074586;28;20881;-64
2022/11/22 06:34:12;;;;;;;32.90;18.90;;;0.60;99.90;;;;;;5074615;28;20480;-64
2022/11/22 06:36:39;;;;;;;36.07;18.77;;;0.60;99.90;;;;;;5074383;28;20553;-65
2022/11/22 06:39:08;;;;;;;33.27;19.20;;;0.60;99.90;;;;;;5074608;28;20540;-66
2022/11/22 06:41:37;;;;;;;31.87;18.17;;;0.60;99.90;;;;;;5075111;28;20517;-65
2022/11/22 06:44:06;;;;;;;30.60;17.20;;;0.70;99.90;;;;;;5074536;28;20507;-65
2022/11/22 06:46:34;;;;;;;31.00;17.20;;;0.70;99.90;;;;;;5075000;28;20941;-67
2022/11/22 06:49:04;;;;;;;32.57;18.03;;;0.70;99.90;;;;;;5078544;28;20495;-66
2022/11/22 06:51:32;;;;;;;34.30;20.33;;;0.70;99.90;;;;;;5078870;28;20567;-65
2022/11/22 06:53:59;;;;;;;33.07;18.10;;;0.70;99.90;;;;;;5078436;28;20450;-66
2022/11/22 06:56:29;;;;;;;31.00;19.50;;;0.80;99.90;;;;;;5078261;28;20453;-66
2022/11/22 06:58:57;;;;;;;28.40;17.40;;;0.80;99.90;;;;;;5078450;28;20473;-65
2022/11/22 07:01:26;;;;;;;28.53;16.47;;;0.80;99.90;;;;;;5078289;28;20572;-66
2022/11/22 07:03:56;;;;;;;31.30;18.07;;;0.80;99.90;;;;;;5078189;28;20489;-65
2022/11/22 07:06:24;;;;;;;32.30;19.20;;;0.90;99.90;;;;;;5078210;28;20442;-64
2022/11/22 07:08:51;;;;;;;29.80;16.53;;;1.00;99.90;;;;;;5078299;28;20561;-67
2022/11/22 07:11:20;;;;;;;31.97;18.63;;;1.00;99.90;;;;;;5078254;28;20619;-64
2022/11/22 07:13:49;;;;;;;30.30;18.53;;;1.00;99.90;;;;;;5077741;28;20458;-65
2022/11/22 07:16:19;;;;;;;33.27;17.97;;;1.00;99.90;;;;;;5077763;28;20485;-66
2022/11/22 07:18:47;;;;;;;29.90;17.30;;;1.00;99.90;;;;;;5077816;28;20458;-65
2022/11/22 07:21:16;;;;;;;31.10;17.93;;;0.90;99.90;;;;;;5077779;28;20512;-65
2022/11/22 07:23:45;;;;;;;30.87;18.73;;;1.00;99.90;;;;;;5079522;28;20458;-64
2022/11/22 07:26:13;;;;;;;36.03;20.67;;;1.00;99.90;;;;;;5079567;28;20593;-64
2022/11/22 07:28:40;;;;;;;31.37;17.93;;;1.10;99.90;;;;;;5080621;28;20970;-65
2022/11/22 07:31:10;;;;;;;28.87;17.17;;;1.10;99.90;;;;;;5077684;28;20519;-65
2022/11/22 07:33:37;;;;;;;38.07;20.67;;;1.10;99.90;;;;;;5077109;28;20458;-66
2022/11/22 07:36:05;;;;;;;31.47;19.17;;;1.10;99.90;;;;;;5076937;28;20493;-65
2022/11/22 07:38:32;;;;;;;39.43;17.70;;;1.00;99.90;;;;;;5076916;28;20458;-65
2022/11/22 07:41:00;;;;;;;38.63;21.23;;;1.00;99.90;;;;;;5076841;28;20474;-65
2022/11/22 07:43:26;;;;;;;38.17;21.17;;;1.00;99.90;;;;;;5077427;28;20910;-66
2022/11/22 07:45:54;;;;;;;34.70;20.20;;;1.00;99.90;;;;;;5077660;28;20521;-65
2022/11/22 07:48:22;;;;;;;35.57;18.97;;;1.00;99.90;;;;;;5076716;28;20895;-65
2022/11/22 07:50:49;;;;;;;28.53;18.10;;;1.00;99.90;;;;;;5077075;28;20822;-65
2022/11/22 07:53:16;;;;;;;33.83;18.47;;;1.00;99.90;;;;;;5076599;28;20519;-65
2022/11/22 07:55:43;;;;;;;28.23;16.80;;;1.00;99.90;;;;;;5077053;28;20947;-66
2022/11/22 07:58:09;;;;;;;36.47;19.63;;;1.00;99.90;;;;;;5076962;28;20458;-65
2022/11/22 08:00:36;;;;;;;33.17;19.50;;;1.10;99.90;;;;;;5076897;28;20544;-65
2022/11/22 08:03:04;;;;;;;33.03;18.77;;;1.10;99.90;;;;;;5076916;28;20534;-65
2022/11/22 08:05:32;;;;;;;33.20;17.77;;;1.20;99.90;;;;;;5077714;28;20593;-66
2022/11/22 08:07:59;;;;;;;38.87;19.80;;;1.20;99.90;;;;;;5077685;28;20553;-65
2022/11/22 08:10:26;;;;;;;30.60;18.67;;;1.30;99.90;;;;;;5077180;28;20534;-65
2022/11/22 08:12:53;;;;;;;34.83;21.77;;;1.30;99.90;;;;;;5078160;28;20458;-65
2022/11/22 08:15:20;;;;;;;32.30;21.20;;;1.30;99.90;;;;;;5078096;28;20815;-65
2022/11/22 08:17:46;;;;;;;35.50;20.63;;;1.30;99.90;;;;;;5077228;28;20545;-65
2022/11/22 08:20:14;;;;;;;31.67;18.20;;;1.40;99.90;;;;;;5077570;28;20458;-66
2022/11/22 08:22:42;;;;;;;34.97;20.70;;;1.40;99.90;;;;;;5086102;28;20500;-65
2022/11/22 08:25:12;;;;;;;31.83;20.23;;;1.40;99.90;;;;;;5096431;28;20564;-64
2022/11/22 08:27:40;;;;;;;38.50;22.17;;;1.50;99.90;;;;;;5096860;28;20448;-66
2022/11/22 08:30:07;;;;;;;39.10;22.47;;;1.50;99.90;;;;;;5096599;28;20453;-66
2022/11/22 08:32:35;;;;;;;35.47;20.37;;;1.50;99.90;;;;;;5096308;28;20485;-66
2022/11/22 08:35:01;;;;;;;34.20;20.73;;;1.60;99.90;;;;;;5096055;28;20986;-65
2022/11/22 08:37:29;;;;;;;32.13;20.20;;;1.60;99.90;;;;;;5095926;28;20945;-65
2022/11/22 08:39:57;;;;;;;32.03;18.37;;;1.60;99.90;;;;;;5095905;28;20505;-66
2022/11/22 08:42:24;;;;;;;31.37;19.00;;;1.60;99.90;;;;;;5095991;28;20841;-66
2022/11/22 08:44:51;;;;;;;34.00;18.97;;;1.70;99.90;;;;;;5096309;28;20589;-65
2022/11/22 08:47:18;;;;;;;36.53;20.73;;;1.60;99.90;;;;;;5096089;28;20461;-66
2022/11/22 08:49:45;;;;;;;33.57;19.50;;;1.60;99.90;;;;;;5096204;28;20450;-65
2022/11/22 08:52:13;;;;;;;35.73;21.57;;;1.60;99.90;;;;;;5096210;28;20492;-63
2022/11/22 08:54:40;;;;;;;31.97;19.00;;;1.70;99.90;;;;;;5096259;28;20453;-65
2022/11/22 08:57:08;;;;;;;52.63;30.87;;;1.70;99.90;;;;;;5096617;28;20518;-65
2022/11/22 08:59:35;;;;;;;35.43;20.23;;;1.70;99.90;;;;;;5095882;28;20457;-65
2022/11/22 09:02:02;;;;;;;35.37;19.60;;;1.70;99.90;;;;;;5095697;28;20489;-65
2022/11/22 09:04:29;;;;;;;37.90;19.93;;;1.70;99.90;;;;;;5095473;28;20510;-65
2022/11/22 09:06:58;;;;;;;33.13;20.23;;;1.70;99.90;;;;;;5095535;28;20459;-67
2022/11/22 09:09:25;;;;;;;30.30;18.73;;;1.70;99.90;;;;;;5095835;28;20449;-65
2022/11/22 09:11:52;;;;;;;34.73;18.60;;;1.70;99.90;;;;;;5094910;28;20510;-65
2022/11/22 09:14:20;;;;;;;38.43;20.40;;;1.70;99.90;;;;;;5095531;28;20475;-65
2022/11/22 09:16:47;;;;;;;38.83;22.60;;;1.60;99.90;;;;;;5095752;28;20564;-64
2022/11/22 09:19:14;;;;;;;44.50;23.60;;;1.70;99.90;;;;;;5095218;28;20483;-66
2022/11/22 09:21:41;;;;;;;35.63;21.90;;;1.70;99.90;;;;;;5095415;28;20477;-65
2022/11/22 09:24:08;;;;;;;48.40;25.00;;;1.80;99.90;;;;;;5095407;28;20489;-63
2022/11/22 09:26:35;;;;;;;40.97;22.20;;;1.80;99.90;;;;;;5094727;28;20571;-65
2022/11/22 09:29:02;;;;;;;42.00;22.53;;;1.90;99.90;;;;;;5095260;28;20552;-66
2022/11/22 09:31:32;;;;;;;42.03;20.70;;;2.00;99.90;;;;;;5095743;28;20796;-64
2022/11/22 09:33:58;;;;;;;37.17;21.20;;;2.00;99.90;;;;;;5095234;28;20489;-65
2022/11/22 09:36:26;;;;;;;39.40;22.67;;;2.10;99.90;;;;;;5095504;28;20522;-65
2022/11/22 09:38:53;;;;;;;45.50;26.97;;;2.10;99.90;;;;;;5095672;28;20457;-65
2022/11/22 09:41:43;;;;;;;52.17;29.30;;;2.10;99.90;;;;;;5095323;28;20529;-64
2022/11/22 09:44:17;;;;;;;42.97;24.67;;;2.20;99.90;;;;;;5095194;28;20502;-65
2022/11/22 09:46:51;;;;;;;40.63;22.03;;;2.20;99.90;;;;;;5095312;28;20723;-64
2022/11/22 09:49:27;;;;;;;41.00;23.70;;;2.10;99.90;;;;;;5095018;28;20533;-65
2022/11/22 09:52:03;;;;;;;38.07;20.27;;;2.10;99.90;;;;;;5094573;28;20469;-65
2022/11/22 09:54:40;;;;;;;37.70;21.60;;;2.10;99.90;;;;;;5095137;28;20461;-64
2022/11/22 09:57:14;;;;;;;40.37;20.67;;;2.20;99.90;;;;;;5094930;28;20527;-64
2022/11/22 09:59:47;;;;;;;36.20;21.53;;;2.20;99.90;;;;;;5094987;28;20437;-66
2022/11/22 10:02:21;;;;;;;39.20;19.57;;;2.20;99.90;;;;;;5094661;28;20530;-66
2022/11/22 10:04:55;;;;;;;41.23;21.70;;;2.30;99.90;;;;;;5094701;28;20469;-66
2022/11/22 10:07:28;;;;;;;40.70;22.30;;;2.30;99.90;;;;;;5094966;28;20457;-64
2022/11/22 10:10:02;;;;;;;39.00;22.00;;;2.40;99.90;;;;;;5094814;28;20437;-65
2022/11/22 10:12:37;;;;;;;42.00;21.47;;;2.40;99.90;;;;;;5096620;28;20518;-66
2022/11/22 10:15:13;;;;;;;39.00;19.83;;;2.40;99.90;;;;;;5096238;28;20502;-65
2022/11/22 10:17:51;;;;;;;35.80;20.23;;;2.40;99.90;;;;;;5095048;28;20903;-65
2022/11/22 10:20:19;;;;;;;40.47;21.33;;;2.30;99.90;;;;;;5094689;28;20516;-66
2022/11/22 10:22:47;;;;;;;40.47;20.70;;;2.20;99.90;;;;;;5095855;28;20477;-64
2022/11/22 10:25:17;;;;;;;35.07;20.53;;;2.20;99.90;;;;;;5098825;28;20473;-65
2022/11/22 10:27:47;;;;;;;43.13;23.50;;;2.20;99.90;;;;;;5099076;28;20468;-66
2022/11/22 10:30:17;;;;;;;38.50;21.63;;;2.20;99.90;;;;;;5099098;28;20536;-65
2022/11/22 10:32:57;;;;;;;41.93;21.93;;;2.20;99.90;;;;;;5099118;28;20921;-64
2022/11/22 10:35:37;;;;;;;44.73;21.97;;;2.20;99.90;;;;;;5099170;28;20514;-65
2022/11/22 10:38:27;;;;;;;38.47;22.37;;;2.30;99.90;;;;;;5098300;28;20441;-66
2022/11/22 10:41:03;;;;;;;38.47;21.50;;;2.30;99.90;;;;;;5099138;28;20457;-65
2022/11/22 10:43:39;;;;;;;41.47;20.80;;;2.40;99.90;;;;;;5098289;28;20840;-65
2022/11/22 10:46:15;;;;;;;37.03;20.33;;;2.40;99.90;;;;;;5098177;28;20437;-65
2022/11/22 10:48:49;;;;;;;35.30;20.07;;;2.40;99.90;;;;;;5098204;28;20652;-64
2022/11/22 10:51:25;;;;;;;44.70;22.37;;;2.40;99.90;;;;;;5098150;28;20438;-66
2022/11/22 10:54:04;;;;;;;34.97;20.53;;;2.50;99.90;;;;;;5098999;28;20857;-66
2022/11/22 10:56:36;;;;;;;45.73;21.77;;;2.50;99.90;;;;;;5098860;28;20839;-65
2022/11/22 10:59:24;;;;;;;39.57;21.90;;;2.50;99.90;;;;;;5098754;28;20730;-65
2022/11/22 11:02:00;;;;;;;43.10;23.00;;;2.50;99.90;;;;;;5098142;28;20473;-65
2022/11/22 11:04:33;;;;;;;48.60;23.03;;;2.60;99.90;;;;;;5097839;28;20532;-64
2022/11/22 11:07:01;;;;;;;40.37;20.90;;;2.60;99.90;;;;;;5097869;28;20777;-63
2022/11/22 11:09:34;;;;;;;36.80;21.70;;;2.60;99.90;;;;;;5097375;28;20457;-65
2022/11/22 11:12:05;;;;;;;42.50;22.60;;;2.70;99.90;;;;;;5097439;28;20472;-65
2022/11/22 11:14:37;;;;;;;36.40;20.97;;;2.70;99.90;;;;;;5097671;28;20465;-65
2022/11/22 11:17:06;;;;;;;37.53;22.90;;;2.70;99.90;;;;;;5097711;28;20536;-63
2022/11/22 11:19:39;;;;;;;41.72;23.15;;;2.80;99.90;;;;;;5097060;28;20563;-64
2022/11/22 11:22:16;;;;;;;40.90;22.50;;;2.90;99.90;;;;;;5097904;28;20256;-64
2022/11/22 11:24:43;;;;;;;46.77;25.80;;;3.00;99.90;;;;;;5098175;28;20498;-65
2022/11/22 11:27:11;;;;;;;42.70;22.83;;;3.10;99.90;;;;;;5097843;28;20484;-66
2022/11/22 11:29:43;;;;;;;42.07;21.90;;;3.10;99.90;;;;;;5098021;28;20485;-65
2022/11/22 11:32:12;;;;;;;35.70;20.10;;;3.10;99.90;;;;;;5097727;28;20874;-65
2022/11/22 11:34:42;;;;;;;44.03;21.03;;;3.10;99.90;;;;;;5097028;28;20568;-65
2022/11/22 11:37:26;;;;;;;35.70;19.77;;;3.20;99.90;;;;;;5096977;28;20442;-64
2022/11/22 11:39:53;;;;;;;40.10;20.60;;;3.20;99.90;;;;;;5097831;28;20449;-66
2022/11/22 11:42:29;;;;;;;42.70;22.27;;;3.30;99.90;;;;;;5096805;28;20997;-64
2022/11/22 11:45:19;;;;;;;42.03;21.83;;;3.40;99.90;;;;;;5097486;28;20971;-65
2022/11/22 11:47:46;;;;;;;37.00;20.30;;;3.70;99.90;;;;;;5098204;28;20445;-64
2022/11/22 11:50:20;;;;;;;36.43;19.80;;;3.70;99.90;;;;;;5097274;28;20488;-64
2022/11/22 11:52:54;;;;;;;38.50;22.87;;;3.80;99.90;;;;;;5097926;28;20434;-64
2022/11/22 11:55:21;;;;;;;37.30;20.33;;;3.80;99.90;;;;;;5097468;28;20832;-65
2022/11/22 11:57:49;;;;;;;36.13;20.63;;;3.80;99.90;;;;;;5097184;28;20461;-63
2022/11/22 12:00:23;;;;;;;37.70;19.70;;;3.80;99.90;;;;;;5097547;28;20507;-64
2022/11/22 12:02:57;;;;;;;38.50;22.00;;;3.80;99.90;;;;;;5096875;28;20475;-61
2022/11/22 12:05:30;;;;;;;38.77;21.50;;;3.80;99.90;;;;;;5096935;28;20492;-64
2022/11/22 12:07:58;;;;;;;37.97;21.53;;;3.70;99.90;;;;;;5096979;28;20870;-63
2022/11/22 12:10:31;;;;;;;37.10;20.77;;;3.70;99.90;;;;;;5098116;28;20481;-64
2022/11/22 12:13:03;;;;;;;42.90;21.53;;;3.70;99.90;;;;;;5097813;28;20434;-64
2022/11/22 12:15:40;;;;;;;36.13;20.43;;;3.70;99.90;;;;;;5098015;28;20441;-61
2022/11/22 12:18:22;;;;;;;44.27;23.13;;;3.60;99.90;;;;;;5097553;28;20442;-64
2022/11/22 12:20:56;;;;;;;43.27;23.33;;;3.60;99.90;;;;;;5097056;28;20503;-64
2022/11/22 12:23:29;;;;;;;39.47;20.27;;;3.60;99.90;;;;;;5096850;28;20477;-64
2022/11/22 12:25:58;;;;;;;41.40;22.07;;;3.50;99.90;;;;;;5096815;28;21102;-64
2022/11/22 12:28:27;;;;;;;37.90;21.20;;;3.60;99.90;;;;;;5096674;28;20457;-62
2022/11/22 12:31:01;;;;;;;39.10;22.60;;;3.60;99.90;;;;;;5096495;28;20518;-63
2022/11/22 12:33:33;;;;;;;39.37;21.20;;;3.50;99.90;;;;;;5096410;28;20459;-65
2022/11/22 12:36:04;;;;;;;41.90;24.37;;;3.60;99.90;;;;;;5096184;28;20437;-64
2022/11/22 12:38:34;;;;;;;35.40;21.47;;;3.60;99.90;;;;;;5097353;28;20867;-63
2022/11/22 12:41:05;;;;;;;36.37;20.87;;;3.60;99.90;;;;;;5096487;28;20457;-62
2022/11/22 12:43:37;;;;;;;36.77;22.20;;;3.60;99.90;;;;;;5096763;28;20549;-63
2022/11/22 12:46:09;;;;;;;38.63;21.70;;;3.60;99.90;;;;;;5095360;28;20477;-64
2022/11/22 12:48:44;;;;;;;35.40;19.73;;;3.60;99.90;;;;;;5096442;28;20470;-64
2022/11/22 12:51:17;;;;;;;36.43;20.13;;;3.60;99.90;;;;;;5095931;28;20447;-64
2022/11/22 12:53:46;;;;;;;41.37;22.00;;;3.70;99.90;;;;;;5096179;28;20495;-64
2022/11/22 12:56:23;;;;;;;40.10;22.40;;;3.70;99.90;;;;;;5096146;28;20458;-64
2022/11/22 12:58:59;;;;;;;35.17;19.80;;;3.70;99.90;;;;;;5097401;28;20445;-64